createdAt,value
2022-12-29T00:00:34.910Z,98497.59
2022-12-29T00:01:38.283Z,98495.69
2022-12-29T00:02:40.279Z,98492.91
2022-12-29T00:03:43.191Z,98501.31
2022-12-29T00:04:45.108Z,98492.47
2022-12-29T00:05:56.344Z,98488.81
2022-12-29T00:06:58.186Z,98488.72
2022-12-29T00:08:01.039Z,98479.22
2022-12-29T00:09:03.005Z,98479.06
2022-12-29T00:10:06.891Z,98479.81
2022-12-29T00:11:12.330Z,98474.47
2022-12-29T00:12:15.157Z,98477.78
2022-12-29T00:13:35.678Z,98475.94
2022-12-29T00:14:55.815Z,98474.09
2022-12-29T00:15:58.073Z,98474.22
2022-12-29T00:17:00.835Z,98480.09
2022-12-29T00:18:02.665Z,98473.09
2022-12-29T00:19:06.348Z,98473.03
2022-12-29T00:20:28.414Z,98466.16
2022-12-29T00:21:48.593Z,98472.25
2022-12-29T00:23:08.990Z,98481.84
2022-12-29T00:24:32.223Z,98481.09
2022-12-29T00:26:11.361Z,98473.44
2022-12-29T00:27:33.887Z,98474.38
2022-12-29T00:28:54.236Z,98473.56
2022-12-29T00:30:14.485Z,98467.63
2022-12-29T00:31:35.114Z,98476.38
2022-12-29T00:32:55.644Z,98480.81
2022-12-29T00:34:15.592Z,98470.50
2022-12-29T00:35:24.625Z,98458.50
2022-12-29T00:36:29.750Z,98468.66
2022-12-29T00:37:46.599Z,98462.56
2022-12-29T00:39:10.045Z,98459.88
2022-12-29T00:40:45.456Z,98469.94
2022-12-29T00:42:06.824Z,98462.97
2022-12-29T00:43:29.336Z,98465.53
2022-12-29T00:44:32.052Z,98466.47
2022-12-29T00:45:33.830Z,98466.47
2022-12-29T00:46:37.994Z,98462.03
2022-12-29T00:47:39.770Z,98456.88
2022-12-29T00:49:00.508Z,98462.69
2022-12-29T00:50:03.876Z,98470.44
2022-12-29T00:51:06.172Z,98466.94
2022-12-29T00:52:11.869Z,98467.03
2022-12-29T00:53:13.661Z,98461.00
2022-12-29T00:54:18.535Z,98459.19
2022-12-29T00:55:20.518Z,98451.25
2022-12-29T00:56:23.348Z,98446.84
2022-12-29T00:57:26.064Z,98442.41
2022-12-29T00:58:30.275Z,98444.81
2022-12-29T00:59:33.430Z,98439.66
2022-12-29T01:00:35.959Z,98431.00
2022-12-29T01:01:39.864Z,98431.94
2022-12-29T01:02:42.926Z,98441.41
2022-12-29T01:03:45.781Z,98444.72
2022-12-29T01:04:48.531Z,98437.72
2022-12-29T01:05:51.832Z,98442.69
2022-12-29T01:06:55.023Z,98448.53
2022-12-29T01:07:56.780Z,98447.50
2022-12-29T01:09:14.544Z,98451.66
2022-12-29T01:10:18.317Z,98459.31
2022-12-29T01:11:20.058Z,98454.13
2022-12-29T01:12:41.283Z,98456.63
2022-12-29T01:13:46.709Z,98452.59
2022-12-29T01:14:49.478Z,98452.66
2022-12-29T01:15:52.010Z,98451.81
2022-12-29T01:16:55.204Z,98450.19
2022-12-29T01:17:56.997Z,98459.56
2022-12-29T01:19:00.852Z,98444.91
2022-12-29T01:20:04.185Z,98449.25
2022-12-29T01:21:08.220Z,98448.41
2022-12-29T01:22:10.058Z,98447.59
2022-12-29T01:23:12.803Z,98434.84
2022-12-29T01:24:16.470Z,98441.78
2022-12-29T01:25:19.805Z,98443.53
2022-12-29T01:26:21.583Z,98448.69
2022-12-29T01:27:24.356Z,98435.88
2022-12-29T01:28:26.556Z,98446.22
2022-12-29T01:29:30.654Z,98442.69
2022-12-29T01:30:33.435Z,98444.47
2022-12-29T01:31:36.352Z,98446.13
2022-12-29T01:32:38.262Z,98443.63
2022-12-29T01:33:41.033Z,98446.13
2022-12-29T01:34:42.877Z,98440.94
2022-12-29T01:35:45.711Z,98451.28
2022-12-29T01:36:47.499Z,98447.03
2022-12-29T01:37:50.336Z,98454.78
2022-12-29T01:38:52.155Z,98449.72
2022-12-29T01:39:57.161Z,98450.63
2022-12-29T01:40:59.180Z,98450.63
2022-12-29T01:42:01.933Z,98453.94
2022-12-29T01:43:05.170Z,98444.34
2022-12-29T01:44:51.289Z,98450.34
2022-12-29T01:45:56.081Z,98451.47
2022-12-29T01:46:57.981Z,98447.31
2022-12-29T01:48:04.051Z,98444.81
2022-12-29T01:49:11.614Z,98441.41
2022-12-29T01:50:17.975Z,98444.06
2022-12-29T01:51:20.925Z,98439.09
2022-12-29T01:52:25.122Z,98444.28
2022-12-29T01:53:29.247Z,98445.25
2022-12-29T01:54:34.472Z,98450.44
2022-12-29T01:55:39.341Z,98441.84
2022-12-29T01:56:44.603Z,98440.94
2022-12-29T01:57:49.942Z,98449.44
2022-12-29T01:58:56.849Z,98451.91
2022-12-29T02:00:02.690Z,98452.75
2022-12-29T02:01:15.918Z,98456.91
2022-12-29T02:02:18.054Z,98460.94
2022-12-29T02:17:05.321Z,98428.25
2022-12-29T02:18:23.440Z,98418.66
2022-12-29T02:19:46.752Z,98417.53
2022-12-29T02:21:33.513Z,98419.03
2022-12-29T02:22:41.685Z,98416.34
2022-12-29T02:24:13.213Z,98419.66
2022-12-29T02:25:52.605Z,98407.56
2022-12-29T02:27:12.136Z,98407.56
2022-12-29T02:28:58.760Z,98395.69
2022-12-29T02:30:07.227Z,98404.53
2022-12-29T02:31:15.290Z,98401.22
2022-12-29T02:32:20.613Z,98390.97
2022-12-29T02:33:33.176Z,98397.91
2022-12-29T02:34:43.428Z,98393.66
2022-12-29T02:35:53.119Z,98397.28
2022-12-29T02:37:01.798Z,98397.34
2022-12-29T02:38:13.292Z,98391.34
2022-12-29T02:39:21.718Z,98396.50
2022-12-29T02:40:27.424Z,98393.94
2022-12-29T02:41:32.809Z,98396.41
2022-12-29T02:42:39.039Z,98391.34
2022-12-29T02:43:47.388Z,98401.56
2022-12-29T02:44:54.897Z,98395.59
2022-12-29T02:46:00.155Z,98395.59
2022-12-29T02:47:07.345Z,98393.94
2022-12-29T02:48:12.199Z,98394.88
2022-12-29T02:49:17.940Z,98403.53
2022-12-29T02:50:24.501Z,98400.13
2022-12-29T02:51:31.402Z,98403.63
2022-12-29T02:52:35.709Z,98398.53
2022-12-29T02:53:52.843Z,98414.97
2022-12-29T02:54:56.142Z,98409.13
2022-12-29T02:55:57.928Z,98413.47
2022-12-29T02:57:00.078Z,98410.16
2022-12-29T02:58:18.531Z,98410.25
2022-12-29T02:59:21.552Z,98405.28
2022-12-29T03:00:24.416Z,98412.19
2022-12-29T03:01:35.752Z,98408.94
2022-12-29T03:03:12.107Z,98416.03
2022-12-29T03:04:25.207Z,98403.44
2022-12-29T03:05:44.281Z,98403.50
2022-12-29T03:06:55.597Z,98402.78
2022-12-29T03:08:04.233Z,98402.78
2022-12-29T03:09:19.020Z,98398.53
2022-12-29T03:10:30.925Z,98404.59
2022-12-29T03:11:54.091Z,98398.72
2022-12-29T03:13:22.620Z,98385.81
2022-12-29T03:14:52.234Z,98395.28
2022-12-29T03:16:04.316Z,98393.53
2022-12-29T03:17:10.983Z,98397.72
2022-12-29T03:18:19.593Z,98401.13
2022-12-29T03:19:24.764Z,98390.81
2022-12-29T03:20:33.651Z,98400.19
2022-12-29T03:21:57.337Z,98401.13
2022-12-29T03:23:01.769Z,98396.94
2022-12-29T03:24:07.952Z,98399.63
2022-12-29T03:25:16.345Z,98389.41
2022-12-29T03:26:22.824Z,98389.47
2022-12-29T03:27:29.663Z,98385.25
2022-12-29T03:28:37.752Z,98385.44
2022-12-29T03:30:01.529Z,98385.50
2022-12-29T03:31:04.421Z,98386.44
2022-12-29T03:32:08.033Z,98384.69
2022-12-29T03:33:11.911Z,98389.84
2022-12-29T03:34:17.397Z,98383.75
2022-12-29T03:35:22.152Z,98379.53
2022-12-29T03:36:28.898Z,98382.22
2022-12-29T03:37:33.308Z,98383.19
2022-12-29T03:38:38.508Z,98384.13
2022-12-29T03:39:40.826Z,98380.88
2022-12-29T03:40:47.895Z,98384.59
2022-12-29T03:41:52.168Z,98382.28
2022-12-29T03:42:56.312Z,98380.78
2022-12-29T03:43:58.302Z,98387.03
2022-12-29T03:45:01.153Z,98387.22
2022-12-29T03:46:03.395Z,98401.91
2022-12-29T03:47:07.622Z,98390.06
2022-12-29T03:48:09.552Z,98389.38
2022-12-29T03:49:18.333Z,98391.22
2022-12-29T03:50:20.394Z,98386.09
2022-12-29T03:51:23.594Z,98380.09
2022-12-29T03:52:25.966Z,98381.81
2022-12-29T03:53:29.948Z,98392.97
2022-12-29T03:54:32.534Z,98377.44
2022-12-29T03:55:35.704Z,98388.47
2022-12-29T03:56:37.909Z,98381.66
2022-12-29T03:57:41.295Z,98380.72
2022-12-29T03:58:46.695Z,98373.00
2022-12-29T04:00:00.858Z,98368.78
2022-12-29T04:01:05.960Z,98373.09
2022-12-29T04:02:11.270Z,98366.34
2022-12-29T04:03:13.823Z,98373.34
2022-12-29T04:04:18.064Z,98378.66
2022-12-29T04:05:20.201Z,98371.22
2022-12-29T04:06:24.573Z,98368.91
2022-12-29T04:07:34.354Z,98369.22
2022-12-29T04:08:39.220Z,98364.44
2022-12-29T04:09:41.905Z,98373.25
2022-12-29T04:10:47.803Z,98364.97
2022-12-29T04:11:51.204Z,98370.44
2022-12-29T04:12:54.963Z,98372.63
2022-12-29T04:13:57.651Z,98372.97
2022-12-29T04:15:02.435Z,98377.59
2022-12-29T04:16:24.167Z,98372.28
2022-12-29T04:17:26.149Z,98362.47
2022-12-29T04:18:30.321Z,98363.75
2022-12-29T04:19:33.736Z,98361.56
2022-12-29T04:20:54.962Z,98358.41
2022-12-29T04:21:58.441Z,98352.75
2022-12-29T04:23:01.079Z,98359.16
2022-12-29T04:24:07.332Z,98350.06
2022-12-29T04:25:13.134Z,98342.78
2022-12-29T04:26:16.395Z,98344.81
2022-12-29T04:27:42.153Z,98342.66
2022-12-29T04:29:17.650Z,98344.94
2022-12-29T04:30:30.479Z,98337.63
2022-12-29T04:31:42.075Z,98334.53
2022-12-29T04:32:44.340Z,98342.47
2022-12-29T04:33:47.141Z,98342.69
2022-12-29T04:34:50.281Z,98342.94
2022-12-29T04:35:54.928Z,98349.16
2022-12-29T04:36:57.847Z,98341.72
2022-12-29T04:38:01.746Z,98341.94
2022-12-29T04:39:06.117Z,98349.97
2022-12-29T04:40:11.325Z,98341.59
2022-12-29T04:41:13.091Z,98348.53
2022-12-29T04:42:16.162Z,98341.81
2022-12-29T04:43:20.218Z,98343.69
2022-12-29T04:44:45.053Z,98340.50
2022-12-29T04:45:53.785Z,98347.47
2022-12-29T04:47:06.785Z,98340.66
2022-12-29T04:48:20.741Z,98344.13
2022-12-29T04:49:42.224Z,98338.84
2022-12-29T04:51:15.359Z,98333.72
2022-12-29T04:52:17.629Z,98333.72
2022-12-29T04:53:22.347Z,98336.28
2022-12-29T04:54:24.322Z,98332.94
2022-12-29T04:55:34.970Z,98332.06
2022-12-29T04:56:36.812Z,98326.94
2022-12-29T04:57:39.624Z,98325.09
2022-12-29T04:58:43.050Z,98325.94
2022-12-29T04:59:46.131Z,98319.97
2022-12-29T05:00:47.918Z,98312.28
2022-12-29T05:01:50.864Z,98320.81
2022-12-29T05:02:53.050Z,98313.00
2022-12-29T05:03:56.140Z,98314.69
2022-12-29T05:04:59.242Z,98323.16
2022-12-29T05:06:02.898Z,98326.47
2022-12-29T05:07:06.025Z,98322.09
2022-12-29T05:08:08.796Z,98329.72
2022-12-29T05:09:10.808Z,98326.31
2022-12-29T05:10:13.708Z,98330.53
2022-12-29T05:11:16.343Z,98334.09
2022-12-29T05:12:21.053Z,98333.41
2022-12-29T05:13:33.483Z,98335.38
2022-12-29T05:14:36.946Z,98347.59
2022-12-29T05:15:39.666Z,98345.25
2022-12-29T05:16:42.631Z,98346.25
2022-12-29T05:17:44.829Z,98347.31
2022-12-29T05:18:48.350Z,98354.31
2022-12-29T05:19:50.145Z,98355.22
2022-12-29T05:20:53.510Z,98356.94
2022-12-29T05:21:56.912Z,98353.56
2022-12-29T05:23:01.230Z,98350.09
2022-12-29T05:24:03.634Z,98350.09
2022-12-29T05:25:07.548Z,98339.91
2022-12-29T05:26:20.621Z,98341.69
2022-12-29T05:27:40.199Z,98340.94
2022-12-29T05:28:53.273Z,98346.16
2022-12-29T05:29:56.688Z,98338.38
2022-12-29T05:30:59.006Z,98340.94
2022-12-29T05:32:01.998Z,98338.38
2022-12-29T05:33:04.542Z,98342.69
2022-12-29T05:34:07.347Z,98335.06
2022-12-29T05:35:09.850Z,98334.28
2022-12-29T05:36:14.002Z,98336.94
2022-12-29T05:37:20.724Z,98333.53
2022-12-29T05:38:25.231Z,98339.63
2022-12-29T05:39:27.097Z,98338.09
2022-12-29T05:40:34.234Z,98340.91
2022-12-29T05:41:40.646Z,98342.00
2022-12-29T05:42:52.624Z,98342.25
2022-12-29T05:44:27.388Z,98336.53
2022-12-29T05:45:59.496Z,98330.78
2022-12-29T05:47:18.255Z,98332.69
2022-12-29T05:48:38.122Z,98331.25
2022-12-29T05:49:50.172Z,98328.88
2022-12-29T05:51:05.005Z,98322.22
2022-12-29T05:52:21.788Z,98316.47
2022-12-29T05:53:26.668Z,98323.34
2022-12-29T05:54:28.572Z,98321.72
2022-12-29T05:55:32.450Z,98327.75
2022-12-29T05:56:35.348Z,98322.63
2022-12-29T05:57:38.204Z,98332.88
2022-12-29T05:58:46.328Z,98330.31
2022-12-29T05:59:49.396Z,98330.41
2022-12-29T06:00:52.909Z,98327.88
2022-12-29T06:01:54.998Z,98327.22
2022-12-29T06:02:58.951Z,98331.56
2022-12-29T06:04:02.065Z,98330.88
2022-12-29T06:05:05.439Z,98323.53
2022-12-29T06:06:25.689Z,98318.75
2022-12-29T06:07:29.155Z,98313.91
2022-12-29T06:08:32.316Z,98321.63
2022-12-29T06:09:35.443Z,98319.16
2022-12-29T06:10:38.624Z,98322.63
2022-12-29T06:11:42.354Z,98321.78
2022-12-29T06:12:44.224Z,98310.75
2022-12-29T06:14:05.546Z,98305.72
2022-12-29T06:15:09.874Z,98303.13
2022-12-29T06:16:15.357Z,98302.31
2022-12-29T06:17:20.143Z,98299.75
2022-12-29T06:18:22.035Z,98298.91
2022-12-29T06:19:24.818Z,98309.16
2022-12-29T06:20:26.638Z,98312.63
2022-12-29T06:21:29.548Z,98302.38
2022-12-29T06:22:33.750Z,98296.34
2022-12-29T06:23:38.887Z,98300.50
2022-12-29T06:24:40.972Z,98306.41
2022-12-29T06:25:43.840Z,98309.72
2022-12-29T06:26:45.728Z,98302.78
2022-12-29T06:27:49.537Z,98302.78
2022-12-29T06:28:51.301Z,98297.81
2022-12-29T06:29:54.057Z,98293.66
2022-12-29T06:30:57.109Z,98297.09
2022-12-29T06:31:59.401Z,98291.16
2022-12-29T06:33:03.578Z,98294.44
2022-12-29T06:34:08.535Z,98302.94
2022-12-29T06:35:12.827Z,98302.88
2022-12-29T06:36:25.508Z,98301.84
2022-12-29T06:37:28.383Z,98305.09
2022-12-29T06:38:31.187Z,98305.72
2022-12-29T06:39:36.692Z,98299.53
2022-12-29T06:40:47.251Z,98305.31
2022-12-29T06:42:11.930Z,98306.91
2022-12-29T06:43:33.240Z,98311.91
2022-12-29T06:44:54.219Z,98306.78
2022-12-29T06:45:57.092Z,98306.72
2022-12-29T06:46:58.858Z,98303.16
2022-12-29T06:48:01.711Z,98298.03
2022-12-29T06:49:04.999Z,98293.69
2022-12-29T06:50:07.344Z,98295.34
2022-12-29T06:51:10.226Z,98294.34
2022-12-29T06:52:13.214Z,98295.97
2022-12-29T06:53:16.819Z,98293.31
2022-12-29T06:54:18.743Z,98292.34
2022-12-29T06:55:23.382Z,98294.75
2022-12-29T06:56:25.217Z,98286.16
2022-12-29T06:57:28.103Z,98291.09
2022-12-29T06:58:30.027Z,98297.75
2022-12-29T06:59:32.886Z,98304.47
2022-12-29T07:00:34.703Z,98315.41
2022-12-29T07:01:37.962Z,98312.72
2022-12-29T07:02:39.960Z,98314.28
2022-12-29T07:03:43.567Z,98320.94
2022-12-29T07:04:45.435Z,98323.28
2022-12-29T07:05:48.182Z,98318.84
2022-12-29T07:06:50.014Z,98316.09
2022-12-29T07:07:53.222Z,98305.59
2022-12-29T07:08:56.174Z,98306.25
2022-12-29T07:09:58.981Z,98301.75
2022-12-29T07:11:02.162Z,98298.06
2022-12-29T07:12:05.190Z,98290.97
2022-12-29T07:13:08.803Z,98293.22
2022-12-29T07:14:12.961Z,98289.47
2022-12-29T07:15:14.819Z,98281.44
2022-12-29T07:16:18.087Z,98289.69
2022-12-29T07:17:19.933Z,98283.41
2022-12-29T07:18:22.662Z,98267.72
2022-12-29T07:19:24.410Z,98284.38
2022-12-29T07:20:27.487Z,98283.22
2022-12-29T07:21:29.379Z,98278.69
2022-12-29T07:22:32.133Z,98290.47
2022-12-29T07:23:35.091Z,98293.63
2022-12-29T07:24:36.904Z,98289.28
2022-12-29T07:25:41.721Z,98295.16
2022-12-29T07:26:44.862Z,98295.84
2022-12-29T07:27:47.767Z,98290.69
2022-12-29T07:28:49.581Z,98288.03
2022-12-29T07:29:52.430Z,98282.72
2022-12-29T07:30:54.300Z,98286.06
2022-12-29T07:31:57.068Z,98291.19
2022-12-29T07:33:00.001Z,98296.34
2022-12-29T07:34:01.889Z,98292.84
2022-12-29T07:35:05.064Z,98298.00
2022-12-29T07:36:08.296Z,98295.41
2022-12-29T07:37:11.060Z,98295.50
2022-12-29T07:38:12.872Z,98290.44
2022-12-29T07:39:15.719Z,98291.19
2022-12-29T07:40:17.568Z,98291.19
2022-12-29T07:41:20.344Z,98297.06
2022-12-29T07:42:23.545Z,98300.56
2022-12-29T07:43:29.250Z,98304.13
2022-12-29T07:44:55.712Z,98311.16
2022-12-29T07:46:02.064Z,98308.69
2022-12-29T07:47:05.100Z,98313.81
2022-12-29T07:48:09.389Z,98307.78
2022-12-29T07:49:11.423Z,98318.78
2022-12-29T07:50:14.189Z,98318.69
2022-12-29T07:51:15.956Z,98317.03
2022-12-29T07:52:18.725Z,98323.00
2022-12-29T07:53:20.831Z,98313.56
2022-12-29T07:54:24.317Z,98304.13
2022-12-29T07:55:27.265Z,98314.25
2022-12-29T07:56:29.036Z,98309.00
2022-12-29T07:57:33.209Z,98313.19
2022-12-29T07:58:35.126Z,98312.94
2022-12-29T07:59:37.882Z,98311.88
2022-12-29T08:00:40.094Z,98317.63
2022-12-29T08:01:43.015Z,98305.34
2022-12-29T08:02:45.003Z,98310.06
2022-12-29T08:03:51.375Z,98310.50
2022-12-29T08:04:56.964Z,98300.63
2022-12-29T08:05:58.769Z,98298.56
2022-12-29T08:07:01.711Z,98300.63
2022-12-29T08:08:03.687Z,98308.69
2022-12-29T08:09:13.586Z,98302.22
2022-12-29T08:10:20.026Z,98302.44
2022-12-29T08:11:22.846Z,98308.00
2022-12-29T08:12:25.552Z,98310.88
2022-12-29T08:13:28.701Z,98300.06
2022-12-29T08:14:31.516Z,98297.81
2022-12-29T08:15:33.433Z,98307.59
2022-12-29T08:16:36.770Z,98303.72
2022-12-29T08:17:38.941Z,98310.94
2022-12-29T08:18:41.680Z,98303.69
2022-12-29T08:19:44.620Z,98304.91
2022-12-29T08:20:48.693Z,98294.13
2022-12-29T08:21:55.015Z,98296.25
2022-12-29T08:22:56.757Z,98298.31
2022-12-29T08:24:00.042Z,98296.84
2022-12-29T08:25:02.114Z,98290.28
2022-12-29T08:26:06.880Z,98292.94
2022-12-29T08:27:18.241Z,98289.00
2022-12-29T08:28:23.333Z,98287.50
2022-12-29T08:29:26.885Z,98295.59
2022-12-29T08:30:29.780Z,98289.97
2022-12-29T08:31:31.630Z,98298.03
2022-12-29T08:32:34.671Z,98296.81
2022-12-29T08:33:36.959Z,98293.94
2022-12-29T08:34:39.751Z,98291.09
2022-12-29T08:35:42.496Z,98291.72
2022-12-29T08:36:44.335Z,98299.38
2022-12-29T08:37:47.193Z,98292.34
2022-12-29T08:38:49.062Z,98296.69
2022-12-29T08:39:52.050Z,98288.84
2022-12-29T08:40:53.882Z,98295.69
2022-12-29T08:41:56.680Z,98302.50
2022-12-29T08:42:59.439Z,98298.16
2022-12-29T08:44:01.211Z,98287.72
2022-12-29T08:45:06.076Z,98293.63
2022-12-29T08:46:08.253Z,98285.78
2022-12-29T08:47:11.625Z,98284.75
2022-12-29T08:48:13.462Z,98284.53
2022-12-29T08:49:16.384Z,98297.19
2022-12-29T08:50:19.192Z,98296.06
2022-12-29T08:51:24.642Z,98285.50
2022-12-29T08:52:28.496Z,98292.06
2022-12-29T08:53:31.265Z,98296.00
2022-12-29T08:54:34.045Z,98296.53
2022-12-29T08:55:36.288Z,98300.53
2022-12-29T08:56:39.080Z,98290.84
2022-12-29T08:57:41.909Z,98281.84
2022-12-29T08:58:54.462Z,98283.94
2022-12-29T08:59:57.764Z,98295.41
2022-12-29T09:01:01.908Z,98295.88
2022-12-29T09:02:04.892Z,98286.63
2022-12-29T09:03:07.972Z,98301.44
2022-12-29T09:04:16.241Z,98302.47
2022-12-29T09:05:19.133Z,98301.66
2022-12-29T09:06:22.430Z,98309.41
2022-12-29T09:07:24.519Z,98297.28
2022-12-29T09:08:27.348Z,98300.75
2022-12-29T09:09:30.123Z,98302.28
2022-12-29T09:10:31.984Z,98292.69
2022-12-29T09:11:34.960Z,98294.09
2022-12-29T09:12:37.730Z,98295.63
2022-12-29T09:13:40.833Z,98286.75
2022-12-29T09:14:45.173Z,98279.69
2022-12-29T09:15:47.003Z,98279.63
2022-12-29T09:17:10.965Z,98279.66
2022-12-29T09:18:20.306Z,98283.09
2022-12-29T09:19:22.757Z,98276.28
2022-12-29T09:20:25.586Z,98281.72
2022-12-29T09:21:27.403Z,98279.59
2022-12-29T09:22:30.109Z,98287.88
2022-12-29T09:23:33.544Z,98283.97
2022-12-29T09:24:35.432Z,98287.88
2022-12-29T09:25:38.196Z,98289.97
2022-12-29T09:26:46.688Z,98291.97
2022-12-29T09:27:50.338Z,98293.03
2022-12-29T09:28:52.105Z,98291.50
2022-12-29T09:29:55.530Z,98297.03
2022-12-29T09:30:58.430Z,98301.75
2022-12-29T09:32:07.530Z,98286.63
2022-12-29T09:33:10.644Z,98281.09
2022-12-29T09:34:12.525Z,98280.94
2022-12-29T09:35:15.885Z,98285.91
2022-12-29T09:36:18.656Z,98278.59
2022-12-29T09:37:40.063Z,98278.22
2022-12-29T09:38:41.857Z,98271.72
2022-12-29T09:39:49.165Z,98274.78
2022-12-29T09:40:59.059Z,98267.28
2022-12-29T09:42:08.268Z,98259.94
2022-12-29T09:43:33.810Z,98265.50
2022-12-29T09:44:47.573Z,98261.56
2022-12-29T09:45:57.331Z,98254.31
2022-12-29T09:47:01.765Z,98263.53
2022-12-29T09:48:09.787Z,98261.38
2022-12-29T09:49:20.836Z,98267.16
2022-12-29T09:50:25.619Z,98267.88
2022-12-29T09:51:29.647Z,98273.88
2022-12-29T09:52:34.837Z,98272.00
2022-12-29T09:53:38.785Z,98261.47
2022-12-29T09:54:54.993Z,98266.03
2022-12-29T09:56:02.715Z,98280.22
2022-12-29T09:57:04.673Z,98267.91
2022-12-29T09:58:14.316Z,98266.00
2022-12-29T09:59:18.639Z,98263.28
2022-12-29T10:00:24.171Z,98252.88
2022-12-29T10:01:31.268Z,98264.09
2022-12-29T10:02:39.272Z,98258.06
2022-12-29T10:03:48.147Z,98248.50
2022-12-29T10:04:50.137Z,98262.19
2022-12-29T10:05:55.696Z,98257.94
2022-12-29T10:08:32.355Z,98265.75
2022-12-29T10:09:38.000Z,98251.09
2022-12-29T10:10:42.810Z,98260.53
2022-12-29T10:11:58.092Z,98257.94
2022-12-29T10:13:07.278Z,98250.13
2022-12-29T10:14:19.800Z,98253.44
2022-12-29T10:15:34.813Z,98256.72
2022-12-29T10:16:43.133Z,98250.47
2022-12-29T10:17:50.110Z,98252.09
2022-12-29T10:19:06.415Z,98254.44
2022-12-29T10:20:31.260Z,98249.94
2022-12-29T10:21:45.624Z,98246.38
2022-12-29T10:23:07.114Z,98243.66
2022-12-29T10:24:12.982Z,98242.00
2022-12-29T10:25:18.877Z,98244.47
2022-12-29T10:26:24.727Z,98245.88
2022-12-29T10:27:26.590Z,98238.50
2022-12-29T10:28:36.521Z,98242.34
2022-12-29T10:29:43.138Z,98243.88
2022-12-29T10:30:45.661Z,98248.81
2022-12-29T10:31:51.429Z,98248.72
2022-12-29T10:32:57.199Z,98242.66
2022-12-29T10:34:02.973Z,98244.56
2022-12-29T10:35:06.866Z,98240.19
2022-12-29T10:36:16.086Z,98240.47
2022-12-29T10:37:34.535Z,98235.50
2022-12-29T10:38:41.016Z,98231.66
2022-12-29T10:39:47.963Z,98226.69
2022-12-29T10:40:53.177Z,98232.16
2022-12-29T10:41:59.450Z,98228.84
2022-12-29T10:43:02.197Z,98229.00
2022-12-29T10:44:05.356Z,98231.44
2022-12-29T10:45:14.011Z,98230.38
2022-12-29T10:46:19.333Z,98225.03
2022-12-29T10:47:26.304Z,98224.78
2022-12-29T10:48:32.768Z,98222.06
2022-12-29T10:49:41.571Z,98228.75
2022-12-29T10:50:44.044Z,98233.72
2022-12-29T10:51:48.618Z,98220.31
2022-12-29T10:52:51.395Z,98229.53
2022-12-29T10:53:56.730Z,98222.16
2022-12-29T10:55:02.426Z,98211.19
2022-12-29T10:56:06.383Z,98217.53
2022-12-29T10:57:11.495Z,98229.06
2022-12-29T10:58:15.737Z,98212.78
2022-12-29T10:59:23.321Z,98214.00
2022-12-29T11:00:26.274Z,98215.16
2022-12-29T11:01:35.594Z,98209.50
2022-12-29T11:02:48.911Z,98210.78
2022-12-29T11:04:04.807Z,98208.59
2022-12-29T11:05:08.557Z,98213.53
2022-12-29T11:06:13.721Z,98202.00
2022-12-29T11:07:18.987Z,98211.34
2022-12-29T11:08:28.319Z,98213.13
2022-12-29T11:09:47.716Z,98202.84
2022-12-29T11:11:11.422Z,98206.91
2022-12-29T11:12:25.518Z,98205.44
2022-12-29T11:13:36.503Z,98206.50
2022-12-29T11:14:41.684Z,98203.22
2022-12-29T11:15:46.231Z,98214.72
2022-12-29T11:16:59.333Z,98219.25
2022-12-29T11:18:01.104Z,98215.97
2022-12-29T11:19:05.526Z,98218.69
2022-12-29T11:20:27.102Z,98217.88
2022-12-29T11:21:34.749Z,98204.03
2022-12-29T11:22:37.773Z,98225.81
2022-12-29T11:23:42.017Z,98218.97
2022-12-29T11:24:48.223Z,98217.88
2022-12-29T11:26:08.352Z,98220.91
2022-12-29T11:27:16.982Z,98223.38
2022-12-29T11:28:18.767Z,98214.47
2022-12-29T11:29:26.389Z,98204.72
2022-12-29T11:30:30.228Z,98211.47
2022-12-29T11:31:33.086Z,98205.28
2022-12-29T11:32:34.839Z,98210.09
2022-12-29T11:33:39.182Z,98216.84
2022-12-29T11:34:43.349Z,98212.97
2022-12-29T11:35:45.543Z,98222.03
2022-12-29T11:36:48.929Z,98210.28
2022-12-29T11:37:58.542Z,98215.88
2022-12-29T11:39:01.827Z,98211.06
2022-12-29T11:40:06.533Z,98213.41
2022-12-29T11:41:12.218Z,98212.84
2022-12-29T11:42:17.462Z,98209.16
2022-12-29T11:43:24.600Z,98209.84
2022-12-29T11:44:27.572Z,98207.09
2022-12-29T11:45:33.504Z,98203.25
2022-12-29T11:46:39.555Z,98203.94
2022-12-29T11:47:44.153Z,98217.53
2022-12-29T11:48:48.910Z,98208.47
2022-12-29T11:49:55.117Z,98208.06
2022-12-29T11:51:00.545Z,98208.59
2022-12-29T11:52:02.365Z,98207.22
2022-12-29T11:53:07.240Z,98204.22
2022-12-29T11:54:17.861Z,98209.03
2022-12-29T11:55:23.025Z,98209.69
2022-12-29T11:56:40.100Z,98212.03
2022-12-29T11:57:44.244Z,98206.53
2022-12-29T11:58:46.209Z,98216.81
2022-12-29T11:59:52.253Z,98207.22
2022-12-29T12:00:55.080Z,98208.72
2022-12-29T12:01:58.628Z,98213.78
2022-12-29T12:03:03.052Z,98217.38
2022-12-29T12:04:08.226Z,98219.56
2022-12-29T12:05:17.216Z,98216.81
2022-12-29T12:06:25.103Z,98214.91
2022-12-29T12:07:35.016Z,98214.75
2022-12-29T12:08:39.915Z,98219.00
2022-12-29T12:09:46.649Z,98217.09
2022-12-29T12:10:53.407Z,98214.06
2022-12-29T12:11:55.956Z,98209.53
2022-12-29T12:13:05.495Z,98210.50
2022-12-29T12:14:14.960Z,98202.78
2022-12-29T12:15:46.734Z,98213.38
2022-12-29T12:16:54.340Z,98211.88
2022-12-29T12:18:02.195Z,98214.75
2022-12-29T12:19:08.925Z,98212.00
2022-12-29T12:20:18.906Z,98211.19
2022-12-29T12:21:26.818Z,98212.00
2022-12-29T12:22:32.731Z,98217.09
2022-12-29T12:23:43.184Z,98209.78
2022-12-29T12:24:49.609Z,98218.84
2022-12-29T12:25:58.899Z,98216.63
2022-12-29T12:27:02.800Z,98215.38
2022-12-29T12:28:12.792Z,98217.03
2022-12-29T12:29:20.664Z,98213.59
2022-12-29T12:30:46.960Z,98210.16
2022-12-29T12:31:53.702Z,98217.88
2022-12-29T12:32:58.896Z,98208.78
2022-12-29T12:34:04.692Z,98208.50
2022-12-29T12:35:08.310Z,98205.47
2022-12-29T12:36:36.558Z,98207.66
2022-12-29T12:37:58.553Z,98206.13
2022-12-29T12:39:03.861Z,98204.34
2022-12-29T12:40:25.258Z,98206.81
2022-12-29T12:41:36.162Z,98210.38
2022-12-29T12:42:45.061Z,98208.47
2022-12-29T12:43:51.599Z,98222.50
2022-12-29T12:45:18.191Z,98218.22
2022-12-29T12:46:45.127Z,98211.50
2022-12-29T12:47:55.599Z,98216.31
2022-12-29T12:49:09.287Z,98216.53
2022-12-29T12:50:34.713Z,98225.75
2022-12-29T12:51:44.996Z,98219.53
2022-12-29T12:53:04.123Z,98219.94
2022-12-29T12:54:27.134Z,98210.84
2022-12-29T12:55:39.726Z,98215.34
2022-12-29T12:56:53.789Z,98215.22
2022-12-29T12:58:01.748Z,98225.66
2022-12-29T12:59:10.322Z,98207.94
2022-12-29T13:00:13.506Z,98210.84
2022-12-29T13:01:27.538Z,98218.97
2022-12-29T13:02:37.863Z,98213.22
2022-12-29T13:03:51.517Z,98217.22
2022-12-29T13:05:10.774Z,98207.50
2022-12-29T13:06:19.613Z,98214.25
2022-12-29T13:07:32.398Z,98206.97
2022-12-29T13:08:55.155Z,98215.38
2022-12-29T13:10:18.029Z,98203.88
2022-12-29T13:11:24.700Z,98204.28
2022-12-29T13:12:34.632Z,98207.88
2022-12-29T13:13:55.657Z,98201.84
2022-12-29T13:15:05.417Z,98212.41
2022-12-29T13:16:14.760Z,98210.75
2022-12-29T13:17:21.829Z,98203.91
2022-12-29T13:18:27.816Z,98197.03
2022-12-29T13:19:34.385Z,98197.72
2022-12-29T13:20:41.520Z,98198.53
2022-12-29T13:22:01.909Z,98194.94
2022-12-29T13:23:13.272Z,98194.28
2022-12-29T13:24:18.886Z,98210.59